sensor_id;sensor_type;location;lat;lon;timestamp;P1;durP1;ratioP1;P2;durP2;ratioP2
23155;SDS011;11746;50.876;4.246;2022-10-31T00:02:10;9.80;;;7.22;;
23155;SDS011;11746;50.876;4.246;2022-10-31T00:04:38;10.20;;;7.60;;
23155;SDS011;11746;50.876;4.246;2022-10-31T00:07:04;11.90;;;7.32;;
23155;SDS011;11746;50.876;4.246;2022-10-31T00:09:30;13.60;;;8.15;;
23155;SDS011;11746;50.876;4.246;2022-10-31T00:11:57;13.25;;;7.38;;
23155;SDS011;11746;50.876;4.246;2022-10-31T00:14:23;12.77;;;8.40;;
23155;SDS011;11746;50.876;4.246;2022-10-31T00:16:49;14.25;;;8.30;;
23155;SDS011;11746;50.876;4.246;2022-10-31T00:19:14;15.35;;;8.57;;
23155;SDS011;11746;50.876;4.246;2022-10-31T00:21:40;13.32;;;8.10;;
23155;SDS011;11746;50.876;4.246;2022-10-31T00:24:06;12.02;;;8.10;;
23155;SDS011;11746;50.876;4.246;2022-10-31T00:26:32;16.83;;;8.00;;
23155;SDS011;11746;50.876;4.246;2022-10-31T00:28:58;14.98;;;7.90;;
23155;SDS011;11746;50.876;4.246;2022-10-31T00:31:24;13.52;;;7.78;;
23155;SDS011;11746;50.876;4.246;2022-10-31T00:33:52;12.60;;;8.18;;
23155;SDS011;11746;50.876;4.246;2022-10-31T00:36:19;13.20;;;8.05;;
23155;SDS011;11746;50.876;4.246;2022-10-31T00:38:46;14.23;;;7.90;;
23155;SDS011;11746;50.876;4.246;2022-10-31T00:41:12;14.00;;;8.45;;
23155;SDS011;11746;50.876;4.246;2022-10-31T00:43:41;12.30;;;7.50;;
23155;SDS011;11746;50.876;4.246;2022-10-31T00:46:07;13.55;;;8.02;;
23155;SDS011;11746;50.876;4.246;2022-10-31T00:48:32;13.63;;;7.90;;
23155;SDS011;11746;50.876;4.246;2022-10-31T00:50:58;15.10;;;8.02;;
23155;SDS011;11746;50.876;4.246;2022-10-31T00:53:24;12.27;;;7.38;;
23155;SDS011;11746;50.876;4.246;2022-10-31T00:55:53;15.77;;;8.15;;
23155;SDS011;11746;50.876;4.246;2022-10-31T00:58:18;10.18;;;7.38;;
23155;SDS011;11746;50.876;4.246;2022-10-31T01:00:46;14.23;;;8.18;;
23155;SDS011;11746;50.876;4.246;2022-10-31T01:03:20;13.05;;;7.75;;
23155;SDS011;11746;50.876;4.246;2022-10-31T01:06:03;12.15;;;7.25;;
23155;SDS011;11746;50.876;4.246;2022-10-31T01:08:34;13.02;;;7.75;;
23155;SDS011;11746;50.876;4.246;2022-10-31T01:11:01;13.27;;;7.65;;
23155;SDS011;11746;50.876;4.246;2022-10-31T01:13:42;10.27;;;7.53;;
23155;SDS011;11746;50.876;4.246;2022-10-31T01:16:10;13.18;;;7.85;;
23155;SDS011;11746;50.876;4.246;2022-10-31T01:18:37;11.80;;;7.53;;
23155;SDS011;11746;50.876;4.246;2022-10-31T01:21:08;12.45;;;7.95;;
23155;SDS011;11746;50.876;4.246;2022-10-31T01:23:36;12.65;;;7.38;;
23155;SDS011;11746;50.876;4.246;2022-10-31T01:26:12;15.25;;;7.28;;
23155;SDS011;11746;50.876;4.246;2022-10-31T01:28:47;12.27;;;7.10;;
23155;SDS011;11746;50.876;4.246;2022-10-31T01:31:15;14.38;;;7.35;;
23155;SDS011;11746;50.876;4.246;2022-10-31T01:33:42;15.43;;;7.00;;
23155;SDS011;11746;50.876;4.246;2022-10-31T01:36:12;13.98;;;6.65;;
23155;SDS011;11746;50.876;4.246;2022-10-31T01:38:41;15.98;;;7.72;;
23155;SDS011;11746;50.876;4.246;2022-10-31T01:41:08;10.77;;;7.55;;
23155;SDS011;11746;50.876;4.246;2022-10-31T01:43:47;10.93;;;6.70;;
23155;SDS011;11746;50.876;4.246;2022-10-31T01:46:17;12.93;;;6.75;;
23155;SDS011;11746;50.876;4.246;2022-10-31T01:49:08;10.32;;;6.50;;
23155;SDS011;11746;50.876;4.246;2022-10-31T01:51:42;11.88;;;6.60;;
23155;SDS011;11746;50.876;4.246;2022-10-31T01:54:12;12.38;;;6.80;;
23155;SDS011;11746;50.876;4.246;2022-10-31T01:56:44;9.88;;;6.15;;
23155;SDS011;11746;50.876;4.246;2022-10-31T01:59:16;10.88;;;6.40;;
23155;SDS011;11746;50.876;4.246;2022-10-31T02:01:45;11.77;;;7.00;;
23155;SDS011;11746;50.876;4.246;2022-10-31T02:04:13;12.98;;;6.72;;
23155;SDS011;11746;50.876;4.246;2022-10-31T02:06:55;12.82;;;6.80;;
23155;SDS011;11746;50.876;4.246;2022-10-31T02:09:34;12.63;;;6.43;;
23155;SDS011;11746;50.876;4.246;2022-10-31T02:12:02;12.80;;;6.43;;
23155;SDS011;11746;50.876;4.246;2022-10-31T02:14:34;9.70;;;6.20;;
23155;SDS011;11746;50.876;4.246;2022-10-31T02:17:01;13.57;;;6.57;;
23155;SDS011;11746;50.876;4.246;2022-10-31T02:19:40;12.13;;;6.85;;
23155;SDS011;11746;50.876;4.246;2022-10-31T02:22:26;10.70;;;5.90;;
23155;SDS011;11746;50.876;4.246;2022-10-31T02:39:48;11.23;;;5.88;;
23155;SDS011;11746;50.876;4.246;2022-10-31T02:42:34;9.98;;;5.75;;
23155;SDS011;11746;50.876;4.246;2022-10-31T02:45:08;10.52;;;5.43;;
23155;SDS011;11746;50.876;4.246;2022-10-31T02:47:43;11.63;;;6.43;;
23155;SDS011;11746;50.876;4.246;2022-10-31T02:50:17;11.40;;;5.45;;
23155;SDS011;11746;50.876;4.246;2022-10-31T02:52:53;9.70;;;6.05;;
23155;SDS011;11746;50.876;4.246;2022-10-31T02:58:02;11.13;;;6.22;;
23155;SDS011;11746;50.876;4.246;2022-10-31T03:00:37;11.10;;;6.18;;
23155;SDS011;11746;50.876;4.246;2022-10-31T03:03:14;10.80;;;6.78;;
23155;SDS011;11746;50.876;4.246;2022-10-31T03:11:29;10.93;;;7.40;;
23155;SDS011;11746;50.876;4.246;2022-10-31T03:14:04;12.20;;;6.05;;
23155;SDS011;11746;50.876;4.246;2022-10-31T03:16:49;10.77;;;6.15;;
23155;SDS011;11746;50.876;4.246;2022-10-31T03:19:20;11.48;;;6.20;;
23155;SDS011;11746;50.876;4.246;2022-10-31T03:21:58;8.40;;;6.20;;
23155;SDS011;11746;50.876;4.246;2022-10-31T03:24:36;9.48;;;5.70;;
23155;SDS011;11746;50.876;4.246;2022-10-31T03:27:04;10.57;;;6.07;;
23155;SDS011;11746;50.876;4.246;2022-10-31T03:29:36;9.70;;;6.25;;
23155;SDS011;11746;50.876;4.246;2022-10-31T03:32:21;12.30;;;6.40;;
23155;SDS011;11746;50.876;4.246;2022-10-31T03:35:12;12.90;;;6.57;;
23155;SDS011;11746;50.876;4.246;2022-10-31T03:37:42;13.10;;;6.30;;
23155;SDS011;11746;50.876;4.246;2022-10-31T03:40:10;12.18;;;6.95;;
23155;SDS011;11746;50.876;4.246;2022-10-31T03:42:39;14.23;;;8.02;;
23155;SDS011;11746;50.876;4.246;2022-10-31T03:45:12;11.60;;;7.65;;
23155;SDS011;11746;50.876;4.246;2022-10-31T03:47:45;12.32;;;6.82;;
23155;SDS011;11746;50.876;4.246;2022-10-31T03:50:12;15.18;;;7.82;;
23155;SDS011;11746;50.876;4.246;2022-10-31T03:52:48;12.35;;;6.85;;
23155;SDS011;11746;50.876;4.246;2022-10-31T03:55:40;12.15;;;7.30;;
23155;SDS011;11746;50.876;4.246;2022-10-31T03:58:27;12.73;;;7.28;;
23155;SDS011;11746;50.876;4.246;2022-10-31T04:01:03;12.38;;;7.20;;
23155;SDS011;11746;50.876;4.246;2022-10-31T04:03:36;7.65;;;6.00;;
23155;SDS011;11746;50.876;4.246;2022-10-31T04:06:07;11.93;;;6.95;;
23155;SDS011;11746;50.876;4.246;2022-10-31T04:08:38;12.70;;;6.80;;
23155;SDS011;11746;50.876;4.246;2022-10-31T04:11:15;13.00;;;6.10;;
23155;SDS011;11746;50.876;4.246;2022-10-31T04:13:44;9.18;;;6.07;;
23155;SDS011;11746;50.876;4.246;2022-10-31T04:16:15;12.13;;;6.45;;
23155;SDS011;11746;50.876;4.246;2022-10-31T04:18:43;12.10;;;6.65;;
23155;SDS011;11746;50.876;4.246;2022-10-31T04:21:11;10.77;;;6.15;;
23155;SDS011;11746;50.876;4.246;2022-10-31T04:23:39;9.73;;;6.18;;
23155;SDS011;11746;50.876;4.246;2022-10-31T04:26:05;11.93;;;6.15;;
23155;SDS011;11746;50.876;4.246;2022-10-31T04:28:31;11.82;;;6.28;;
23155;SDS011;11746;50.876;4.246;2022-10-31T04:30:59;9.35;;;5.35;;
23155;SDS011;11746;50.876;4.246;2022-10-31T04:33:25;11.50;;;6.90;;
23155;SDS011;11746;50.876;4.246;2022-10-31T04:35:51;17.92;;;7.38;;
23155;SDS011;11746;50.876;4.246;2022-10-31T04:38:17;10.35;;;6.88;;
23155;SDS011;11746;50.876;4.246;2022-10-31T04:40:44;10.32;;;6.53;;
23155;SDS011;11746;50.876;4.246;2022-10-31T04:43:10;11.10;;;5.90;;
23155;SDS011;11746;50.876;4.246;2022-10-31T04:45:35;12.15;;;7.05;;
23155;SDS011;11746;50.876;4.246;2022-10-31T04:48:01;10.02;;;7.00;;
23155;SDS011;11746;50.876;4.246;2022-10-31T04:50:27;11.57;;;6.80;;
23155;SDS011;11746;50.876;4.246;2022-10-31T04:52:52;10.30;;;6.63;;
23155;SDS011;11746;50.876;4.246;2022-10-31T04:55:18;11.18;;;5.93;;
23155;SDS011;11746;50.876;4.246;2022-10-31T04:57:47;11.65;;;7.10;;
23155;SDS011;11746;50.876;4.246;2022-10-31T05:00:15;8.75;;;6.70;;
23155;SDS011;11746;50.876;4.246;2022-10-31T05:02:47;10.88;;;6.90;;
23155;SDS011;11746;50.876;4.246;2022-10-31T05:05:17;11.68;;;6.65;;
23155;SDS011;11746;50.876;4.246;2022-10-31T05:07:45;8.93;;;6.13;;
23155;SDS011;11746;50.876;4.246;2022-10-31T05:10:13;11.27;;;7.05;;
23155;SDS011;11746;50.876;4.246;2022-10-31T05:12:50;13.30;;;6.43;;
23155;SDS011;11746;50.876;4.246;2022-10-31T05:15:22;11.88;;;7.20;;
23155;SDS011;11746;50.876;4.246;2022-10-31T05:17:50;13.75;;;7.50;;
23155;SDS011;11746;50.876;4.246;2022-10-31T05:20:17;10.27;;;7.00;;
23155;SDS011;11746;50.876;4.246;2022-10-31T05:22:47;16.52;;;7.38;;
23155;SDS011;11746;50.876;4.246;2022-10-31T05:25:14;15.88;;;7.28;;
23155;SDS011;11746;50.876;4.246;2022-10-31T05:27:41;15.15;;;6.60;;
23155;SDS011;11746;50.876;4.246;2022-10-31T05:30:09;12.32;;;7.13;;
23155;SDS011;11746;50.876;4.246;2022-10-31T05:32:40;10.50;;;7.00;;
23155;SDS011;11746;50.876;4.246;2022-10-31T05:35:07;12.05;;;7.03;;
23155;SDS011;11746;50.876;4.246;2022-10-31T05:37:35;13.20;;;7.22;;
23155;SDS011;11746;50.876;4.246;2022-10-31T05:40:01;10.75;;;6.15;;
23155;SDS011;11746;50.876;4.246;2022-10-31T05:42:28;12.43;;;7.10;;
23155;SDS011;11746;50.876;4.246;2022-10-31T05:44:56;9.65;;;6.60;;
23155;SDS011;11746;50.876;4.246;2022-10-31T05:47:23;12.20;;;6.60;;
23155;SDS011;11746;50.876;4.246;2022-10-31T05:49:48;14.00;;;6.57;;
23155;SDS011;11746;50.876;4.246;2022-10-31T05:52:17;12.00;;;6.53;;
23155;SDS011;11746;50.876;4.246;2022-10-31T05:54:43;12.23;;;7.22;;
23155;SDS011;11746;50.876;4.246;2022-10-31T05:57:08;9.05;;;6.72;;
23155;SDS011;11746;50.876;4.246;2022-10-31T05:59:34;11.73;;;6.82;;
23155;SDS011;11746;50.876;4.246;2022-10-31T06:02:02;14.35;;;7.20;;
23155;SDS011;11746;50.876;4.246;2022-10-31T06:04:28;12.18;;;7.82;;
23155;SDS011;11746;50.876;4.246;2022-10-31T06:06:54;14.68;;;7.72;;
23155;SDS011;11746;50.876;4.246;2022-10-31T06:09:21;15.90;;;7.70;;
23155;SDS011;11746;50.876;4.246;2022-10-31T06:11:47;11.95;;;6.97;;
23155;SDS011;11746;50.876;4.246;2022-10-31T06:14:12;16.58;;;7.55;;
23155;SDS011;11746;50.876;4.246;2022-10-31T06:16:38;12.13;;;6.78;;
23155;SDS011;11746;50.876;4.246;2022-10-31T06:19:04;12.93;;;6.72;;
23155;SDS011;11746;50.876;4.246;2022-10-31T06:21:30;12.88;;;7.80;;
23155;SDS011;11746;50.876;4.246;2022-10-31T06:23:56;13.70;;;7.07;;
23155;SDS011;11746;50.876;4.246;2022-10-31T06:26:21;11.07;;;7.05;;
23155;SDS011;11746;50.876;4.246;2022-10-31T06:28:47;12.63;;;7.03;;
23155;SDS011;11746;50.876;4.246;2022-10-31T06:31:12;15.57;;;7.88;;
23155;SDS011;11746;50.876;4.246;2022-10-31T06:33:40;15.27;;;7.60;;
23155;SDS011;11746;50.876;4.246;2022-10-31T06:36:07;12.95;;;7.45;;
23155;SDS011;11746;50.876;4.246;2022-10-31T06:38:33;12.55;;;7.97;;
23155;SDS011;11746;50.876;4.246;2022-10-31T06:41:01;12.73;;;8.35;;
23155;SDS011;11746;50.876;4.246;2022-10-31T06:43:31;10.95;;;7.60;;
23155;SDS011;11746;50.876;4.246;2022-10-31T06:45:57;13.95;;;8.20;;
23155;SDS011;11746;50.876;4.246;2022-10-31T06:48:26;12.77;;;8.18;;
23155;SDS011;11746;50.876;4.246;2022-10-31T06:50:52;13.18;;;8.25;;
23155;SDS011;11746;50.876;4.246;2022-10-31T06:53:17;12.18;;;7.93;;
23155;SDS011;11746;50.876;4.246;2022-10-31T06:55:44;14.73;;;8.45;;
23155;SDS011;11746;50.876;4.246;2022-10-31T06:58:10;17.58;;;8.98;;
23155;SDS011;11746;50.876;4.246;2022-10-31T07:00:36;13.02;;;8.52;;
23155;SDS011;11746;50.876;4.246;2022-10-31T07:03:03;14.65;;;8.82;;
23155;SDS011;11746;50.876;4.246;2022-10-31T07:05:34;15.95;;;9.00;;
23155;SDS011;11746;50.876;4.246;2022-10-31T07:08:01;17.67;;;9.23;;
23155;SDS011;11746;50.876;4.246;2022-10-31T07:10:29;20.35;;;9.02;;
23155;SDS011;11746;50.876;4.246;2022-10-31T07:12:59;18.05;;;9.23;;
23155;SDS011;11746;50.876;4.246;2022-10-31T07:15:27;19.13;;;9.65;;
23155;SDS011;11746;50.876;4.246;2022-10-31T07:17:59;18.45;;;9.20;;
23155;SDS011;11746;50.876;4.246;2022-10-31T07:20:26;15.85;;;9.07;;
23155;SDS011;11746;50.876;4.246;2022-10-31T07:22:52;14.43;;;8.75;;
23155;SDS011;11746;50.876;4.246;2022-10-31T07:25:18;13.90;;;9.38;;
23155;SDS011;11746;50.876;4.246;2022-10-31T07:27:46;14.23;;;9.57;;
23155;SDS011;11746;50.876;4.246;2022-10-31T07:30:12;15.88;;;9.23;;
23155;SDS011;11746;50.876;4.246;2022-10-31T07:32:43;18.50;;;9.13;;
23155;SDS011;11746;50.876;4.246;2022-10-31T07:35:17;13.48;;;8.82;;
23155;SDS011;11746;50.876;4.246;2022-10-31T07:37:48;18.80;;;9.13;;
23155;SDS011;11746;50.876;4.246;2022-10-31T07:40:14;14.90;;;8.70;;
23155;SDS011;11746;50.876;4.246;2022-10-31T07:42:48;16.38;;;9.73;;
23155;SDS011;11746;50.876;4.246;2022-10-31T07:45:16;17.08;;;9.60;;
23155;SDS011;11746;50.876;4.246;2022-10-31T07:50:09;21.42;;;9.85;;
23155;SDS011;11746;50.876;4.246;2022-10-31T07:52:36;16.35;;;10.15;;
23155;SDS011;11746;50.876;4.246;2022-10-31T07:55:02;18.20;;;9.85;;
23155;SDS011;11746;50.876;4.246;2022-10-31T07:57:29;15.95;;;9.30;;
23155;SDS011;11746;50.876;4.246;2022-10-31T07:59:54;16.42;;;9.10;;
23155;SDS011;11746;50.876;4.246;2022-10-31T08:02:22;17.67;;;9.43;;
23155;SDS011;11746;50.876;4.246;2022-10-31T08:04:51;18.38;;;9.98;;
23155;SDS011;11746;50.876;4.246;2022-10-31T08:07:17;19.17;;;9.20;;
23155;SDS011;11746;50.876;4.246;2022-10-31T08:09:43;16.63;;;9.43;;
23155;SDS011;11746;50.876;4.246;2022-10-31T08:12:14;15.35;;;9.23;;
23155;SDS011;11746;50.876;4.246;2022-10-31T08:14:40;20.52;;;11.30;;
23155;SDS011;11746;50.876;4.246;2022-10-31T08:17:05;19.20;;;11.90;;
23155;SDS011;11746;50.876;4.246;2022-10-31T08:19:31;20.02;;;10.82;;
23155;SDS011;11746;50.876;4.246;2022-10-31T08:21:57;19.80;;;10.25;;
23155;SDS011;11746;50.876;4.246;2022-10-31T08:24:23;20.27;;;10.40;;
23155;SDS011;11746;50.876;4.246;2022-10-31T08:26:49;18.00;;;10.77;;
23155;SDS011;11746;50.876;4.246;2022-10-31T08:29:15;17.23;;;9.68;;
23155;SDS011;11746;50.876;4.246;2022-10-31T08:31:41;15.43;;;9.48;;
23155;SDS011;11746;50.876;4.246;2022-10-31T08:34:07;17.35;;;9.48;;
23155;SDS011;11746;50.876;4.246;2022-10-31T08:36:33;15.25;;;9.52;;
23155;SDS011;11746;50.876;4.246;2022-10-31T08:38:59;14.95;;;9.82;;
23155;SDS011;11746;50.876;4.246;2022-10-31T08:41:25;17.83;;;10.10;;
23155;SDS011;11746;50.876;4.246;2022-10-31T08:43:50;17.73;;;10.68;;
23155;SDS011;11746;50.876;4.246;2022-10-31T08:46:16;18.20;;;11.23;;
23155;SDS011;11746;50.876;4.246;2022-10-31T08:48:44;19.98;;;10.55;;
23155;SDS011;11746;50.876;4.246;2022-10-31T08:51:15;16.45;;;10.52;;
23155;SDS011;11746;50.876;4.246;2022-10-31T08:53:41;21.08;;;10.18;;
23155;SDS011;11746;50.876;4.246;2022-10-31T08:56:07;17.63;;;10.23;;
23155;SDS011;11746;50.876;4.246;2022-10-31T08:58:33;14.55;;;9.75;;
23155;SDS011;11746;50.876;4.246;2022-10-31T09:01:01;17.90;;;11.10;;
23155;SDS011;11746;50.876;4.246;2022-10-31T09:03:28;17.85;;;10.02;;
23155;SDS011;11746;50.876;4.246;2022-10-31T09:05:56;26.48;;;10.25;;
23155;SDS011;11746;50.876;4.246;2022-10-31T09:08:28;29.73;;;11.23;;
23155;SDS011;11746;50.876;4.246;2022-10-31T09:10:56;29.20;;;11.85;;
23155;SDS011;11746;50.876;4.246;2022-10-31T09:13:24;38.92;;;12.23;;
23155;SDS011;11746;50.876;4.246;2022-10-31T09:15:50;38.40;;;12.57;;
23155;SDS011;11746;50.876;4.246;2022-10-31T09:18:20;30.80;;;11.80;;
23155;SDS011;11746;50.876;4.246;2022-10-31T09:20:50;26.63;;;11.10;;
23155;SDS011;11746;50.876;4.246;2022-10-31T09:23:19;15.65;;;10.60;;
23155;SDS011;11746;50.876;4.246;2022-10-31T09:25:47;20.30;;;10.40;;
23155;SDS011;11746;50.876;4.246;2022-10-31T09:28:15;21.00;;;10.68;;
23155;SDS011;11746;50.876;4.246;2022-10-31T09:30:42;17.58;;;9.52;;
23155;SDS011;11746;50.876;4.246;2022-10-31T09:33:11;20.65;;;9.02;;
23155;SDS011;11746;50.876;4.246;2022-10-31T09:35:38;15.52;;;8.23;;
23155;SDS011;11746;50.876;4.246;2022-10-31T09:38:08;15.82;;;9.40;;
23155;SDS011;11746;50.876;4.246;2022-10-31T09:40:40;13.77;;;8.13;;
23155;SDS011;11746;50.876;4.246;2022-10-31T09:52:02;15.40;;;8.60;;
23155;SDS011;11746;50.876;4.246;2022-10-31T09:54:43;15.68;;;8.23;;
23155;SDS011;11746;50.876;4.246;2022-10-31T09:57:25;11.40;;;8.20;;
23155;SDS011;11746;50.876;4.246;2022-10-31T09:59:53;14.30;;;6.85;;
23155;SDS011;11746;50.876;4.246;2022-10-31T10:05:08;16.20;;;7.75;;
23155;SDS011;11746;50.876;4.246;2022-10-31T10:10:17;13.57;;;6.97;;
23155;SDS011;11746;50.876;4.246;2022-10-31T10:26:45;14.82;;;7.47;;
23155;SDS011;11746;50.876;4.246;2022-10-31T10:32:29;11.05;;;6.35;;
23155;SDS011;11746;50.876;4.246;2022-10-31T10:35:10;13.43;;;7.77;;
23155;SDS011;11746;50.876;4.246;2022-10-31T10:38:02;12.95;;;8.00;;
23155;SDS011;11746;50.876;4.246;2022-10-31T10:40:29;13.73;;;7.82;;
23155;SDS011;11746;50.876;4.246;2022-10-31T10:42:59;12.65;;;7.43;;
23155;SDS011;11746;50.876;4.246;2022-10-31T10:45:44;11.57;;;7.05;;
23155;SDS011;11746;50.876;4.246;2022-10-31T10:48:44;14.20;;;7.47;;
23155;SDS011;11746;50.876;4.246;2022-10-31T10:51:24;11.98;;;7.50;;
23155;SDS011;11746;50.876;4.246;2022-10-31T10:59:56;11.85;;;7.78;;
23155;SDS011;11746;50.876;4.246;2022-10-31T11:02:26;12.68;;;7.90;;
23155;SDS011;11746;50.876;4.246;2022-10-31T11:05:00;10.63;;;7.03;;
23155;SDS011;11746;50.876;4.246;2022-10-31T11:07:38;14.20;;;7.78;;
23155;SDS011;11746;50.876;4.246;2022-10-31T11:10:11;11.75;;;7.10;;
23155;SDS011;11746;50.876;4.246;2022-10-31T11:12:41;13.32;;;7.80;;
23155;SDS011;11746;50.876;4.246;2022-10-31T11:15:17;14.07;;;7.68;;
23155;SDS011;11746;50.876;4.246;2022-10-31T11:17:49;11.80;;;8.00;;
23155;SDS011;11746;50.876;4.246;2022-10-31T11:22:44;15.02;;;8.23;;
23155;SDS011;11746;50.876;4.246;2022-10-31T11:25:24;14.13;;;7.88;;
23155;SDS011;11746;50.876;4.246;2022-10-31T11:27:59;15.30;;;8.35;;
23155;SDS011;11746;50.876;4.246;2022-10-31T11:30:27;10.85;;;7.60;;
23155;SDS011;11746;50.876;4.246;2022-10-31T11:32:53;14.82;;;8.65;;
23155;SDS011;11746;50.876;4.246;2022-10-31T11:35:20;16.45;;;9.10;;
23155;SDS011;11746;50.876;4.246;2022-10-31T11:37:48;12.63;;;8.68;;
23155;SDS011;11746;50.876;4.246;2022-10-31T11:40:20;17.05;;;9.50;;
23155;SDS011;11746;50.876;4.246;2022-10-31T11:42:49;18.27;;;9.27;;
23155;SDS011;11746;50.876;4.246;2022-10-31T11:47:49;15.90;;;9.07;;
23155;SDS011;11746;50.876;4.246;2022-10-31T11:50:21;15.63;;;8.27;;
23155;SDS011;11746;50.876;4.246;2022-10-31T11:56:05;16.02;;;8.48;;
23155;SDS011;11746;50.876;4.246;2022-10-31T11:58:41;15.90;;;8.82;;
23155;SDS011;11746;50.876;4.246;2022-10-31T12:01:27;18.75;;;8.38;;
23155;SDS011;11746;50.876;4.246;2022-10-31T12:04:07;15.77;;;8.73;;
23155;SDS011;11746;50.876;4.246;2022-10-31T12:06:38;13.63;;;7.88;;
23155;SDS011;11746;50.876;4.246;2022-10-31T12:17:14;12.55;;;8.05;;
23155;SDS011;11746;50.876;4.246;2022-10-31T12:22:57;11.50;;;6.57;;
23155;SDS011;11746;50.876;4.246;2022-10-31T12:28:32;12.35;;;6.40;;
23155;SDS011;11746;50.876;4.246;2022-10-31T12:39:37;10.60;;;5.47;;
23155;SDS011;11746;50.876;4.246;2022-10-31T12:47:54;16.30;;;6.32;;
23155;SDS011;11746;50.876;4.246;2022-10-31T12:50:50;10.77;;;5.78;;
23155;SDS011;11746;50.876;4.246;2022-10-31T12:55:48;14.80;;;5.68;;
23155;SDS011;11746;50.876;4.246;2022-10-31T12:58:23;11.38;;;5.63;;
23155;SDS011;11746;50.876;4.246;2022-10-31T13:01:02;15.25;;;5.65;;
23155;SDS011;11746;50.876;4.246;2022-10-31T13:06:19;9.20;;;5.00;;
23155;SDS011;11746;50.876;4.246;2022-10-31T13:08:51;13.30;;;5.97;;
23155;SDS011;11746;50.876;4.246;2022-10-31T13:11:23;13.18;;;5.13;;
23155;SDS011;11746;50.876;4.246;2022-10-31T13:13:59;11.40;;;5.32;;
23155;SDS011;11746;50.876;4.246;2022-10-31T13:16:37;12.57;;;5.63;;
23155;SDS011;11746;50.876;4.246;2022-10-31T13:19:22;14.90;;;5.57;;
23155;SDS011;11746;50.876;4.246;2022-10-31T13:22:25;15.02;;;5.30;;
23155;SDS011;11746;50.876;4.246;2022-10-31T13:27:41;13.45;;;5.25;;
23155;SDS011;11746;50.876;4.246;2022-10-31T13:32:39;14.52;;;5.90;;
23155;SDS011;11746;50.876;4.246;2022-10-31T13:38:12;11.95;;;5.32;;
23155;SDS011;11746;50.876;4.246;2022-10-31T13:41:17;9.68;;;5.40;;
23155;SDS011;11746;50.876;4.246;2022-10-31T13:46:37;12.38;;;5.47;;
23155;SDS011;11746;50.876;4.246;2022-10-31T13:49:20;16.48;;;5.18;;
23155;SDS011;11746;50.876;4.246;2022-10-31T13:51:50;11.20;;;5.30;;
23155;SDS011;11746;50.876;4.246;2022-10-31T13:54:32;12.60;;;5.57;;
23155;SDS011;11746;50.876;4.246;2022-10-31T13:57:01;11.70;;;5.55;;
23155;SDS011;11746;50.876;4.246;2022-10-31T13:59:31;12.35;;;4.80;;
23155;SDS011;11746;50.876;4.246;2022-10-31T14:02:02;9.18;;;4.70;;
23155;SDS011;11746;50.876;4.246;2022-10-31T14:04:47;14.88;;;4.80;;
23155;SDS011;11746;50.876;4.246;2022-10-31T14:07:18;14.07;;;5.47;;
23155;SDS011;11746;50.876;4.246;2022-10-31T14:15:12;12.60;;;5.35;;
23155;SDS011;11746;50.876;4.246;2022-10-31T14:17:51;19.80;;;5.60;;
23155;SDS011;11746;50.876;4.246;2022-10-31T14:22:47;15.43;;;5.60;;
23155;SDS011;11746;50.876;4.246;2022-10-31T14:28:31;13.85;;;5.03;;
23155;SDS011;11746;50.876;4.246;2022-10-31T14:31:00;14.32;;;5.70;;
23155;SDS011;11746;50.876;4.246;2022-10-31T14:33:27;13.23;;;5.05;;
23155;SDS011;11746;50.876;4.246;2022-10-31T14:41:24;14.20;;;4.72;;
23155;SDS011;11746;50.876;4.246;2022-10-31T14:47:02;13.85;;;4.65;;
23155;SDS011;11746;50.876;4.246;2022-10-31T14:52:24;15.27;;;4.97;;
23155;SDS011;11746;50.876;4.246;2022-10-31T14:54:53;13.93;;;4.32;;
23155;SDS011;11746;50.876;4.246;2022-10-31T14:57:31;10.80;;;4.60;;
23155;SDS011;11746;50.876;4.246;2022-10-31T15:00:33;12.60;;;4.93;;
23155;SDS011;11746;50.876;4.246;2022-10-31T15:02:58;9.05;;;4.28;;
23155;SDS011;11746;50.876;4.246;2022-10-31T15:05:44;10.45;;;4.20;;
23155;SDS011;11746;50.876;4.246;2022-10-31T15:08:26;6.32;;;3.78;;
23155;SDS011;11746;50.876;4.246;2022-10-31T15:11:10;11.45;;;4.57;;
23155;SDS011;11746;50.876;4.246;2022-10-31T15:13:51;8.63;;;4.00;;
23155;SDS011;11746;50.876;4.246;2022-10-31T15:16:27;11.73;;;4.25;;
23155;SDS011;11746;50.876;4.246;2022-10-31T15:19:41;12.25;;;4.43;;
23155;SDS011;11746;50.876;4.246;2022-10-31T15:21:50;8.35;;;3.92;;
23155;SDS011;11746;50.876;4.246;2022-10-31T15:24:18;12.25;;;4.15;;
23155;SDS011;11746;50.876;4.246;2022-10-31T15:26:46;10.45;;;4.22;;
23155;SDS011;11746;50.876;4.246;2022-10-31T15:29:15;9.85;;;4.30;;
23155;SDS011;11746;50.876;4.246;2022-10-31T15:34:39;12.73;;;4.40;;
23155;SDS011;11746;50.876;4.246;2022-10-31T15:37:16;11.35;;;4.15;;
23155;SDS011;11746;50.876;4.246;2022-10-31T15:39:46;11.07;;;4.38;;
23155;SDS011;11746;50.876;4.246;2022-10-31T15:42:25;9.98;;;4.13;;
23155;SDS011;11746;50.876;4.246;2022-10-31T15:45:15;17.20;;;4.88;;
23155;SDS011;11746;50.876;4.246;2022-10-31T15:48:03;11.57;;;4.65;;
23155;SDS011;11746;50.876;4.246;2022-10-31T15:50:45;13.52;;;5.03;;
23155;SDS011;11746;50.876;4.246;2022-10-31T15:53:20;11.32;;;4.82;;
23155;SDS011;11746;50.876;4.246;2022-10-31T15:56:04;15.35;;;5.32;;
23155;SDS011;11746;50.876;4.246;2022-10-31T15:58:39;16.73;;;5.63;;
23155;SDS011;11746;50.876;4.246;2022-10-31T16:01:21;11.13;;;4.85;;
23155;SDS011;11746;50.876;4.246;2022-10-31T16:06:35;12.18;;;5.45;;
23155;SDS011;11746;50.876;4.246;2022-10-31T16:09:18;12.65;;;5.35;;
23155;SDS011;11746;50.876;4.246;2022-10-31T16:11:46;16.92;;;6.25;;
23155;SDS011;11746;50.876;4.246;2022-10-31T16:16:46;17.08;;;5.60;;
23155;SDS011;11746;50.876;4.246;2022-10-31T16:22:08;13.55;;;6.35;;
23155;SDS011;11746;50.876;4.246;2022-10-31T16:27:17;11.65;;;6.32;;
23155;SDS011;11746;50.876;4.246;2022-10-31T16:29:55;11.90;;;5.93;;
23155;SDS011;11746;50.876;4.246;2022-10-31T16:32:36;18.35;;;6.15;;
23155;SDS011;11746;50.876;4.246;2022-10-31T16:35:25;13.90;;;6.25;;
23155;SDS011;11746;50.876;4.246;2022-10-31T16:37:55;13.00;;;6.20;;
23155;SDS011;11746;50.876;4.246;2022-10-31T16:40:21;17.42;;;6.00;;
23155;SDS011;11746;50.876;4.246;2022-10-31T16:42:47;13.95;;;6.07;;
23155;SDS011;11746;50.876;4.246;2022-10-31T16:45:19;14.30;;;6.32;;
23155;SDS011;11746;50.876;4.246;2022-10-31T16:47:49;14.75;;;6.00;;
23155;SDS011;11746;50.876;4.246;2022-10-31T16:50:23;15.07;;;6.05;;
23155;SDS011;11746;50.876;4.246;2022-10-31T16:52:50;15.82;;;6.30;;
23155;SDS011;11746;50.876;4.246;2022-10-31T16:55:19;10.63;;;5.70;;
23155;SDS011;11746;50.876;4.246;2022-10-31T16:57:46;13.85;;;5.82;;
23155;SDS011;11746;50.876;4.246;2022-10-31T17:00:16;13.60;;;6.13;;
23155;SDS011;11746;50.876;4.246;2022-10-31T17:02:47;21.52;;;6.93;;
23155;SDS011;11746;50.876;4.246;2022-10-31T17:05:18;12.75;;;6.38;;
23155;SDS011;11746;50.876;4.246;2022-10-31T17:07:45;16.48;;;6.78;;
23155;SDS011;11746;50.876;4.246;2022-10-31T17:10:12;17.50;;;6.65;;
23155;SDS011;11746;50.876;4.246;2022-10-31T17:12:40;11.60;;;5.70;;
23155;SDS011;11746;50.876;4.246;2022-10-31T17:15:13;9.88;;;5.78;;
23155;SDS011;11746;50.876;4.246;2022-10-31T17:17:45;13.63;;;5.65;;
23155;SDS011;11746;50.876;4.246;2022-10-31T17:20:21;10.82;;;4.97;;
23155;SDS011;11746;50.876;4.246;2022-10-31T17:22:53;14.10;;;4.97;;
23155;SDS011;11746;50.876;4.246;2022-10-31T17:25:23;13.15;;;5.35;;
23155;SDS011;11746;50.876;4.246;2022-10-31T17:30:21;12.85;;;4.95;;
23155;SDS011;11746;50.876;4.246;2022-10-31T17:32:48;13.10;;;5.53;;